Station Historical Data
Daily Summary for October 15, 2017 Units:  English    Metric   Both
« Previous Day
Next Day »
Daily Weekly Monthly Yearly Custom
  High: Low: Average:
Temperature: 80.3 °F 62.6 °F 69.2 °F
Dew Point: 71.3 °F 60.5 °F 65.3 °F
Humidity: 94% 71% 88%
Wind Speed: 10.0mph 1.0mph 4mph
Wind Gust: 10.0mph - -
Wind- - SSE
Pressure: 30.21 in 30.04 in -
Precipitation: 0.00 in    
Historical Graphs
 
 
Tabular Data for October 15, 2017
Time Temperature Dew Point Pressure Wind Wind Speed Wind Gust Humidity Rainfall Rate (Hourly) solar Conditions
00:00 63.3 °F 60.9 °F 30.18 in NNE 3.0 mph 3.0 mph 92% 0.00 in WeatherDisplay:10.37 W/m2 CLR
00:05 63.3 °F 60.9 °F 30.18 in NNE 3.0 mph 3.0 mph 92% 0.00 in WeatherDisplay:10.37 W/m2 CLR
00:10 63.2 °F 60.8 °F 30.18 in NNE 3.0 mph 3.0 mph 92% 0.00 in WeatherDisplay:10.37 W/m2 CLR
00:15 63.2 °F 61.1 °F 30.19 in East 3.0 mph 3.0 mph 93% 0.00 in WeatherDisplay:10.37 W/m2 CLR
00:20 63.2 °F 60.8 °F 30.19 in ESE 3.0 mph 3.0 mph 92% 0.00 in WeatherDisplay:10.37 W/m2 CLR
00:25 63.1 °F 61.0 °F 30.19 in ESE 3.0 mph 3.0 mph 93% 0.00 in WeatherDisplay:10.37 W/m2 CLR
00:30 63.0 °F 60.6 °F 30.19 in ESE 3.0 mph 3.0 mph 92% 0.00 in WeatherDisplay:10.37 W/m2 CLR
00:35 63.0 °F 60.9 °F 30.19 in ESE 3.0 mph 3.0 mph 93% 0.00 in WeatherDisplay:10.37 W/m2 CLR
00:40 63.0 °F 60.9 °F 30.19 in ESE 3.0 mph 3.0 mph 93% 0.00 in WeatherDisplay:10.37 W/m2 CLR
00:45 63.0 °F 60.9 °F 30.18 in ESE 3.0 mph 3.0 mph 93% 0.00 in WeatherDisplay:10.37 W/m2 CLR
00:50 63.0 °F 60.9 °F 30.18 in ESE 3.0 mph 3.0 mph 93% 0.00 in WeatherDisplay:10.37 W/m2 CLR
00:55 63.1 °F 61.0 °F 30.18 in ESE 3.0 mph 3.0 mph 93% 0.00 in WeatherDisplay:10.37 W/m2 CLR
01:00 63.1 °F 61.0 °F 30.19 in ESE 3.0 mph 3.0 mph 93% 0.00 in WeatherDisplay:10.37 W/m2 CLR
01:05 63.1 °F 61.0 °F 30.18 in ESE 3.0 mph 3.0 mph 93% 0.00 in WeatherDisplay:10.37 W/m2 CLR
01:10 63.1 °F 61.0 °F 30.19 in ESE 3.0 mph 3.0 mph 93% 0.00 in WeatherDisplay:10.37 W/m2 CLR
01:15 63.0 °F 60.9 °F 30.19 in ESE 3.0 mph 3.0 mph 93% 0.00 in WeatherDisplay:10.37 W/m2 FEW
01:20 62.9 °F 60.8 °F 30.19 in ESE 3.0 mph 3.0 mph 93% 0.00 in WeatherDisplay:10.37 W/m2 FEW
01:25 62.8 °F 60.7 °F 30.19 in ESE 3.0 mph 3.0 mph 93% 0.00 in WeatherDisplay:10.37 W/m2 FEW
01:30 62.8 °F 60.7 °F 30.18 in ESE 3.0 mph 3.0 mph 93% 0.00 in WeatherDisplay:10.37 W/m2 FEW
01:35 62.7 °F 60.6 °F 30.18 in ESE 3.0 mph 3.0 mph 93% 0.00 in WeatherDisplay:10.37 W/m2 FEW
01:40 62.7 °F 60.6 °F 30.18 in ESE 3.0 mph 3.0 mph 93% 0.00 in WeatherDisplay:10.37 W/m2 FEW
01:45 62.7 °F 60.7 °F 30.18 in ESE 3.0 mph 3.0 mph 93% 0.00 in WeatherDisplay:10.37 W/m2 FEW
01:50 62.8 °F 60.7 °F 30.18 in ESE 3.0 mph 3.0 mph 93% 0.00 in WeatherDisplay:10.37 W/m2 FEW
01:55 62.8 °F 60.7 °F 30.18 in ESE 3.0 mph 3.0 mph 93% 0.00 in WeatherDisplay:10.37 W/m2 FEW
02:00 63.0 °F 60.9 °F 30.18 in ESE 3.0 mph 3.0 mph 93% 0.00 in WeatherDisplay:10.37 W/m2 FEW
02:05 63.2 °F 61.1 °F 30.17 in ESE 3.0 mph 3.0 mph 93% 0.00 in WeatherDisplay:10.37 W/m2 FEW
02:10 63.3 °F 61.2 °F 30.18 in ESE 3.0 mph 3.0 mph 93% 0.00 in WeatherDisplay:10.37 W/m2 FEW
02:15 63.3 °F 61.2 °F 30.18 in ESE 1.0 mph 3.0 mph 93% 0.00 in WeatherDisplay:10.37 W/m2 BKN
02:20 63.2 °F 61.2 °F 30.18 in East 1.0 mph 1.0 mph 93% 0.00 in WeatherDisplay:10.37 W/m2 BKN
02:25 63.2 °F 61.1 °F 30.17 in East 3.0 mph 3.0 mph 93% 0.00 in WeatherDisplay:10.37 W/m2 SCT
02:30 63.2 °F 61.1 °F 30.17 in East 3.0 mph 3.0 mph 93% 0.00 in WeatherDisplay:10.37 W/m2 SCT
02:35 63.2 °F 61.1 °F 30.17 in East 3.0 mph 3.0 mph 93% 0.00 in WeatherDisplay:10.37 W/m2 SCT
02:40 63.1 °F 61.0 °F 30.17 in East 3.0 mph 3.0 mph 93% 0.00 in WeatherDisplay:10.37 W/m2 SCT
02:45 63.1 °F 61.1 °F 30.17 in East 3.0 mph 3.0 mph 93% 0.00 in WeatherDisplay:10.37 W/m2 SCT
02:50 63.1 °F 61.1 °F 30.17 in East 3.0 mph 3.0 mph 93% 0.00 in WeatherDisplay:10.37 W/m2 SCT
02:55 63.1 °F 61.0 °F 30.17 in East 3.0 mph 3.0 mph 93% 0.00 in WeatherDisplay:10.37 W/m2 SCT
03:00 63.1 °F 61.0 °F 30.17 in East 3.0 mph 3.0 mph 93% 0.00 in WeatherDisplay:10.37 W/m2 SCT
03:05 63.1 °F 61.0 °F 30.17 in East 3.0 mph 3.0 mph 93% 0.00 in WeatherDisplay:10.37 W/m2 SCT
03:10 63.0 °F 61.0 °F 30.17 in East 3.0 mph 3.0 mph 93% 0.00 in WeatherDisplay:10.37 W/m2 SCT
03:15 63.0 °F 61.0 °F 30.17 in ENE 1.0 mph 3.0 mph 93% 0.00 in WeatherDisplay:10.37 W/m2 SCT
03:20 63.0 °F 61.0 °F 30.17 in NNE 1.0 mph 1.0 mph 93% 0.00 in WeatherDisplay:10.37 W/m2 SCT
03:30 62.9 °F 60.8 °F 30.16 in NNE 1.0 mph 1.0 mph 93% 0.00 in WeatherDisplay:10.37 W/m2 SCT
03:35 62.9 °F 60.8 °F 30.16 in NNE 1.0 mph 1.0 mph 93% 0.00 in WeatherDisplay:10.37 W/m2 SCT
03:40 62.8 °F 60.7 °F 30.17 in NNE 1.0 mph 1.0 mph 93% 0.00 in WeatherDisplay:10.37 W/m2 SCT
03:45 62.6 °F 60.6 °F 30.16 in NNE 1.0 mph 1.0 mph 93% 0.00 in WeatherDisplay:10.37 W/m2 SCT
03:50 62.6 °F 60.5 °F 30.16 in NNE 1.0 mph 1.0 mph 93% 0.00 in WeatherDisplay:10.37 W/m2 SCT
03:55 62.7 °F 60.6 °F 30.17 in NNE 1.0 mph 1.0 mph 93% 0.00 in WeatherDisplay:10.37 W/m2 SCT
04:00 62.8 °F 61.0 °F 30.16 in NNE 1.0 mph 1.0 mph 94% 0.00 in WeatherDisplay:10.37 W/m2 SCT
04:05 62.9 °F 61.1 °F 30.16 in NNE 1.0 mph 1.0 mph 94% 0.00 in WeatherDisplay:10.37 W/m2 SCT
04:10 63.0 °F 61.2 °F 30.16 in NNE 1.0 mph 1.0 mph 94% 0.00 in WeatherDisplay:10.37 W/m2 SCT
04:15 63.1 °F 61.4 °F 30.16 in NNE 1.0 mph 1.0 mph 94% 0.00 in WeatherDisplay:10.37 W/m2 SCT
04:20 63.3 °F 61.5 °F 30.16 in NNE 1.0 mph 1.0 mph 94% 0.00 in WeatherDisplay:10.37 W/m2 SCT
04:25 63.2 °F 61.4 °F 30.16 in NNE 1.0 mph 1.0 mph 94% 0.00 in WeatherDisplay:10.37 W/m2 SCT
04:30 63.3 °F 61.5 °F 30.16 in NNE 1.0 mph 1.0 mph 94% 0.00 in WeatherDisplay:10.37 W/m2 SCT
04:35 63.3 °F 61.5 °F 30.16 in NNE 1.0 mph 1.0 mph 94% 0.00 in WeatherDisplay:10.37 W/m2 SCT
04:40 63.4 °F 61.6 °F 30.16 in NNE 1.0 mph 1.0 mph 94% 0.00 in WeatherDisplay:10.37 W/m2 SCT
04:50 63.5 °F 61.7 °F 30.16 in NNE 1.0 mph 1.0 mph 94% 0.00 in WeatherDisplay:10.37 W/m2 SCT
04:55 63.5 °F 61.7 °F 30.16 in NNE 1.0 mph 1.0 mph 94% 0.00 in WeatherDisplay:10.37 W/m2 BKN
05:00 63.5 °F 61.7 °F 30.16 in NNE 1.0 mph 1.0 mph 94% 0.00 in WeatherDisplay:10.37 W/m2 BKN
05:05 63.5 °F 61.7 °F 30.16 in NNE 1.0 mph 1.0 mph 94% 0.00 in WeatherDisplay:10.37 W/m2 BKN
05:10 63.4 °F 61.6 °F 30.16 in NNE 1.0 mph 1.0 mph 94% 0.00 in WeatherDisplay:10.37 W/m2 BKN
05:20 63.3 °F 61.5 °F 30.16 in NNE 1.0 mph 1.0 mph 94% 0.00 in WeatherDisplay:10.37 W/m2 BKN
05:25 63.3 °F 61.5 °F 30.16 in NNE 1.0 mph 1.0 mph 94% 0.00 in WeatherDisplay:10.37 W/m2 BKN
05:30 63.3 °F 61.5 °F 30.16 in NNE 1.0 mph 1.0 mph 94% 0.00 in WeatherDisplay:10.37 W/m2 BKN
05:40 63.3 °F 61.5 °F 30.17 in NNE 1.0 mph 1.0 mph 94% 0.00 in WeatherDisplay:10.37 W/m2 BKN
05:45 63.3 °F 61.5 °F 30.17 in NNE 1.0 mph 1.0 mph 94% 0.00 in WeatherDisplay:10.37 W/m2 BKN
05:50 63.2 °F 61.4 °F 30.17 in NNE 1.0 mph 1.0 mph 94% 0.00 in WeatherDisplay:10.37 W/m2 BKN
05:55 63.3 °F 61.5 °F 30.17 in NNE 1.0 mph 1.0 mph 94% 0.00 in WeatherDisplay:10.37 W/m2 BKN
06:00 63.2 °F 61.4 °F 30.17 in NNE 1.0 mph 1.0 mph 94% 0.00 in WeatherDisplay:10.37 W/m2 BKN
06:05 63.2 °F 61.4 °F 30.17 in NNE 1.0 mph 1.0 mph 94% 0.00 in WeatherDisplay:10.37 W/m2 BKN
06:10 63.2 °F 61.4 °F 30.17 in NNE 1.0 mph 1.0 mph 94% 0.00 in WeatherDisplay:10.37 W/m2 BKN
06:15 63.3 °F 61.5 °F 30.17 in NNE 1.0 mph 1.0 mph 94% 0.00 in WeatherDisplay:10.37 W/m2 OVC
06:20 63.3 °F 61.5 °F 30.17 in NNE 1.0 mph 1.0 mph 94% 0.00 in WeatherDisplay:10.37 W/m2 OVC
06:25 63.4 °F 61.6 °F 30.18 in NNE 1.0 mph 1.0 mph 94% 0.00 in WeatherDisplay:10.37 W/m2 OVC
06:30 63.5 °F 61.7 °F 30.18 in NNE 1.0 mph 1.0 mph 94% 0.00 in WeatherDisplay:10.37 W/m2 OVC
06:35 63.5 °F 61.7 °F 30.18 in NNE 1.0 mph 1.0 mph 94% 0.00 in WeatherDisplay:10.37 W/m2 OVC
06:40 63.5 °F 61.7 °F 30.18 in NNE 1.0 mph 1.0 mph 94% 0.00 in WeatherDisplay:10.37 W/m2 OVC
06:45 63.5 °F 61.7 °F 30.18 in NNE 1.0 mph 1.0 mph 94% 0.00 in WeatherDisplay:10.37 W/m2 OVC
06:50 63.6 °F 61.8 °F 30.18 in NNE 1.0 mph 1.0 mph 94% 0.00 in WeatherDisplay:10.37 W/m2 OVC
06:55 63.6 °F 61.8 °F 30.17 in NNE 1.0 mph 1.0 mph 94% 0.00 in WeatherDisplay:10.37 W/m2 OVC
07:00 63.6 °F 61.8 °F 30.18 in NNE 1.0 mph 1.0 mph 94% 0.00 in WeatherDisplay:10.37 W/m2 OVC
07:05 63.6 °F 61.8 °F 30.18 in NNE 1.0 mph 1.0 mph 94% 0.00 in WeatherDisplay:10.37 W/m2 OVC
07:10 63.6 °F 61.9 °F 30.18 in NNE 1.0 mph 1.0 mph 94% 0.00 in WeatherDisplay:10.37 W/m2 OVC
07:15 63.7 °F 61.9 °F 30.18 in East 5.0 mph 5.0 mph 94% 0.00 in WeatherDisplay:10.37 W/m2 OVC
07:25 63.9 °F 62.1 °F 30.18 in East 5.0 mph 5.0 mph 94% 0.00 in WeatherDisplay:10.37 W/m2 OVC
07:30 63.9 °F 62.1 °F 30.18 in East 5.0 mph 5.0 mph 94% 0.00 in WeatherDisplay:10.37 W/m2 OVC
07:35 64.0 °F 62.2 °F 30.18 in East 5.0 mph 5.0 mph 94% 0.00 in WeatherDisplay:10.37 W/m2 OVC
07:40 64.1 °F 62.3 °F 30.18 in East 5.0 mph 5.0 mph 94% 0.00 in WeatherDisplay:10.37 W/m2 OVC
07:45 64.2 °F 62.4 °F 30.18 in East 5.0 mph 5.0 mph 94% 0.00 in WeatherDisplay:10.37 W/m2 OVC
07:50 64.3 °F 62.5 °F 30.18 in East 5.0 mph 5.0 mph 94% 0.00 in WeatherDisplay:10.37 W/m2 OVC
07:55 64.3 °F 62.5 °F 30.18 in East 5.0 mph 5.0 mph 94% 0.00 in WeatherDisplay:10.37 W/m2 OVC
08:00 64.3 °F 62.5 °F 30.17 in East 5.0 mph 5.0 mph 94% 0.00 in WeatherDisplay:10.37 W/m2 OVC
08:05 64.3 °F 62.5 °F 30.17 in East 5.0 mph 5.0 mph 94% 0.00 in WeatherDisplay:10.37 W/m2 OVC
08:10 64.4 °F 62.6 °F 30.18 in East 5.0 mph 5.0 mph 94% 0.00 in WeatherDisplay:10.37 W/m2 OVC
08:15 64.4 °F 62.6 °F 30.18 in East 5.0 mph 5.0 mph 94% 0.00 in WeatherDisplay:10.37 W/m2 OVC
08:20 64.5 °F 62.7 °F 30.18 in East 5.0 mph 5.0 mph 94% 0.00 in WeatherDisplay:10.37 W/m2 OVC
08:25 64.5 °F 62.8 °F 30.18 in ESE 3.0 mph 5.0 mph 94% 0.00 in WeatherDisplay:10.37 W/m2 BKN
08:30 64.7 °F 62.9 °F 30.19 in SE 3.0 mph 3.0 mph 94% 0.00 in WeatherDisplay:10.37 W/m2 BKN
08:35 64.8 °F 63.0 °F 30.19 in SE 3.0 mph 3.0 mph 94% 0.00 in WeatherDisplay:10.37 W/m2 BKN
08:40 64.9 °F 63.1 °F 30.19 in SE 3.0 mph 3.0 mph 94% 0.00 in WeatherDisplay:10.37 W/m2 BKN
08:45 65.0 °F 63.2 °F 30.19 in SSE 3.0 mph 3.0 mph 94% 0.00 in WeatherDisplay:10.37 W/m2 OVC
08:50 65.1 °F 63.3 °F 30.19 in SSE 3.0 mph 3.0 mph 94% 0.00 in WeatherDisplay:10.37 W/m2 OVC
08:55 65.2 °F 63.4 °F 30.20 in SSE 3.0 mph 3.0 mph 94% 0.00 in WeatherDisplay:10.37 W/m2 OVC
09:00 65.4 °F 63.6 °F 30.20 in SSE 3.0 mph 3.0 mph 94% 0.00 in WeatherDisplay:10.37 W/m2 OVC
09:05 65.5 °F 63.7 °F 30.20 in SSE 3.0 mph 3.0 mph 94% 0.00 in WeatherDisplay:10.37 W/m2 OVC
09:10 65.6 °F 63.8 °F 30.20 in SSE 3.0 mph 3.0 mph 94% 0.00 in WeatherDisplay:10.37 W/m2 OVC
09:15 65.7 °F 63.9 °F 30.20 in SSE 3.0 mph 3.0 mph 94% 0.00 in WeatherDisplay:10.37 W/m2 OVC
09:20 65.8 °F 64.0 °F 30.20 in SSE 3.0 mph 3.0 mph 94% 0.00 in WeatherDisplay:10.37 W/m2 OVC
09:25 66.0 °F 64.2 °F 30.20 in SSE 3.0 mph 3.0 mph 94% 0.00 in WeatherDisplay:10.37 W/m2 OVC
09:30 66.1 °F 64.4 °F 30.20 in SSE 3.0 mph 3.0 mph 94% 0.00 in WeatherDisplay:10.37 W/m2 OVC
09:35 66.2 °F 64.2 °F 30.20 in SSE 3.0 mph 3.0 mph 93% 0.00 in WeatherDisplay:10.37 W/m2 OVC
09:40 66.4 °F 64.3 °F 30.20 in SSE 3.0 mph 3.0 mph 93% 0.00 in WeatherDisplay:10.37 W/m2 OVC
09:45 66.6 °F 64.5 °F 30.20 in SSE 3.0 mph 3.0 mph 93% 0.00 in WeatherDisplay:10.37 W/m2 OVC
09:50 66.8 °F 64.7 °F 30.20 in SSE 3.0 mph 3.0 mph 93% 0.00 in WeatherDisplay:10.37 W/m2 OVC
10:00 67.0 °F 64.9 °F 30.21 in SSE 3.0 mph 3.0 mph 93% 0.00 in WeatherDisplay:10.37 W/m2 OVC
10:05 67.1 °F 65.0 °F 30.20 in SSE 3.0 mph 3.0 mph 93% 0.00 in WeatherDisplay:10.37 W/m2 OVC
10:10 67.2 °F 64.8 °F 30.20 in SSE 3.0 mph 3.0 mph 92% 0.00 in WeatherDisplay:10.37 W/m2 OVC
10:15 67.3 °F 64.9 °F 30.20 in SSE 3.0 mph 3.0 mph 92% 0.00 in WeatherDisplay:10.37 W/m2 OVC
10:20 67.5 °F 65.1 °F 30.20 in SSE 3.0 mph 3.0 mph 92% 0.00 in WeatherDisplay:10.37 W/m2 OVC
10:25 67.8 °F 65.4 °F 30.20 in SE 2.0 mph 3.0 mph 92% 0.00 in WeatherDisplay:10.37 W/m2 OVC
10:30 68.1 °F 65.6 °F 30.20 in SE 2.0 mph 2.0 mph 92% 0.00 in WeatherDisplay:10.37 W/m2 OVC
10:40 68.6 °F 65.9 °F 30.20 in SE 2.0 mph 2.0 mph 91% 0.00 in WeatherDisplay:10.37 W/m2 OVC
10:45 68.9 °F 65.8 °F 30.21 in SSE 3.0 mph 3.0 mph 90% 0.00 in WeatherDisplay:10.37 W/m2 BKN
10:50 69.2 °F 66.1 °F 30.21 in SSE 3.0 mph 3.0 mph 90% 0.00 in WeatherDisplay:10.37 W/m2 BKN
10:55 69.5 °F 66.4 °F 30.21 in SSE 3.0 mph 3.0 mph 90% 0.00 in WeatherDisplay:10.37 W/m2 BKN
11:00 69.8 °F 66.8 °F 30.21 in SSE 3.0 mph 3.0 mph 90% 0.00 in WeatherDisplay:10.37 W/m2 BKN
11:05 70.2 °F 67.1 °F 30.20 in SSE 3.0 mph 3.0 mph 90% 0.00 in WeatherDisplay:10.37 W/m2 BKN
11:10 70.6 °F 67.5 °F 30.20 in SSE 3.0 mph 3.0 mph 90% 0.00 in WeatherDisplay:10.37 W/m2 BKN
11:15 71.0 °F 67.6 °F 30.20 in SSE 5.0 mph 5.0 mph 89% 0.00 in WeatherDisplay:10.37 W/m2 BKN
11:25 71.7 °F 67.6 °F 30.20 in South 5.0 mph 5.0 mph 87% 0.00 in WeatherDisplay:10.37 W/m2 BKN
11:30 72.1 °F 67.6 °F 30.20 in South 5.0 mph 5.0 mph 86% 0.00 in WeatherDisplay:10.37 W/m2 BKN
11:35 72.6 °F 68.2 °F 30.20 in South 5.0 mph 5.0 mph 86% 0.00 in WeatherDisplay:10.37 W/m2 BKN
11:40 73.2 °F 68.4 °F 30.20 in South 5.0 mph 5.0 mph 85% 0.00 in WeatherDisplay:10.37 W/m2 BKN
11:45 73.5 °F 68.4 °F 30.19 in South 5.0 mph 5.0 mph 84% 0.00 in WeatherDisplay:10.37 W/m2 BKN
11:50 73.7 °F 68.2 °F 30.19 in South 5.0 mph 5.0 mph 83% 0.00 in WeatherDisplay:10.37 W/m2 BKN
11:55 74.1 °F 68.2 °F 30.19 in South 5.0 mph 5.0 mph 82% 0.00 in WeatherDisplay:10.37 W/m2 BKN
12:00 74.5 °F 69.0 °F 30.19 in South 5.0 mph 5.0 mph 83% 0.00 in WeatherDisplay:10.37 W/m2 BKN
12:05 75.0 °F 69.1 °F 30.19 in South 5.0 mph 5.0 mph 82% 0.00 in WeatherDisplay:10.37 W/m2 BKN
12:10 75.1 °F 68.5 °F 30.19 in South 5.0 mph 5.0 mph 80% 0.00 in WeatherDisplay:10.37 W/m2 BKN
12:15 75.2 °F 69.3 °F 30.18 in SSW 7.0 mph 7.0 mph 82% 0.00 in WeatherDisplay:10.37 W/m2 BKN
12:20 75.3 °F 69.1 °F 30.18 in SW 7.0 mph 7.0 mph 81% 0.00 in WeatherDisplay:10.37 W/m2 BKN
12:25 75.6 °F 68.9 °F 30.18 in SW 7.0 mph 7.0 mph 80% 0.00 in WeatherDisplay:10.37 W/m2 BKN
12:30 75.8 °F 69.1 °F 30.18 in SW 7.0 mph 7.0 mph 80% 0.00 in WeatherDisplay:10.37 W/m2 BKN
12:35 76.0 °F 69.0 °F 30.18 in SW 7.0 mph 7.0 mph 79% 0.00 in WeatherDisplay:10.37 W/m2 BKN
12:40 76.4 °F 69.4 °F 30.17 in SW 7.0 mph 7.0 mph 79% 0.00 in WeatherDisplay:10.37 W/m2 BKN
12:45 76.9 °F 69.1 °F 30.17 in SW 8.0 mph 8.0 mph 77% 0.00 in WeatherDisplay:10.37 W/m2 BKN
12:50 77.2 °F 69.8 °F 30.17 in SW 8.0 mph 8.0 mph 78% 0.00 in WeatherDisplay:10.37 W/m2 BKN
12:55 77.8 °F 70.0 °F 30.17 in SW 8.0 mph 8.0 mph 77% 0.00 in WeatherDisplay:10.37 W/m2 BKN
13:00 78.2 °F 69.6 °F 30.17 in SW 8.0 mph 8.0 mph 75% 0.00 in WeatherDisplay:10.37 W/m2 BKN
13:05 78.3 °F 69.7 °F 30.17 in SW 8.0 mph 8.0 mph 75% 0.00 in WeatherDisplay:10.37 W/m2 BKN
13:10 78.3 °F 69.3 °F 30.16 in SW 8.0 mph 8.0 mph 74% 0.00 in WeatherDisplay:10.37 W/m2 BKN
13:15 78.4 °F 69.8 °F 30.16 in SW 7.0 mph 8.0 mph 75% 0.00 in WeatherDisplay:10.37 W/m2 BKN
13:20 78.7 °F 69.7 °F 30.16 in SW 7.0 mph 7.0 mph 74% 0.00 in WeatherDisplay:10.37 W/m2 BKN
13:25 78.5 °F 69.9 °F 30.15 in SW 5.0 mph 7.0 mph 75% 0.00 in WeatherDisplay:10.37 W/m2 BKN
13:30 78.8 °F 70.2 °F 30.15 in SSW 5.0 mph 5.0 mph 75% 0.00 in WeatherDisplay:10.37 W/m2 BKN
13:35 78.8 °F 69.8 °F 30.15 in SSW 5.0 mph 5.0 mph 74% 0.00 in WeatherDisplay:10.37 W/m2 BKN
13:40 78.8 °F 70.2 °F 30.15 in SSW 5.0 mph 5.0 mph 75% 0.00 in WeatherDisplay:10.37 W/m2 BKN
13:45 78.5 °F 69.9 °F 30.15 in SSW 5.0 mph 5.0 mph 75% 0.00 in WeatherDisplay:10.37 W/m2 BKN
13:50 78.5 °F 69.5 °F 30.14 in SSW 5.0 mph 5.0 mph 74% 0.00 in WeatherDisplay:10.37 W/m2 BKN
13:55 78.8 °F 70.2 °F 30.14 in SSW 5.0 mph 5.0 mph 75% 0.00 in WeatherDisplay:10.37 W/m2 BKN
14:00 79.0 °F 70.4 °F 30.14 in SSW 5.0 mph 5.0 mph 75% 0.00 in WeatherDisplay:10.37 W/m2 BKN
14:05 79.5 °F 70.1 °F 30.13 in SSW 5.0 mph 5.0 mph 73% 0.00 in WeatherDisplay:10.37 W/m2 BKN
14:10 80.3 °F 70.0 °F 30.13 in SSW 5.0 mph 5.0 mph 71% 0.00 in WeatherDisplay:10.37 W/m2 BKN
14:15 80.1 °F 69.9 °F 30.13 in SSW 5.0 mph 5.0 mph 71% 0.00 in WeatherDisplay:10.37 W/m2 BKN
14:20 79.9 °F 69.7 °F 30.12 in SSW 5.0 mph 5.0 mph 71% 0.00 in WeatherDisplay:10.37 W/m2 BKN
14:25 79.8 °F 69.6 °F 30.12 in SW 7.0 mph 7.0 mph 71% 0.00 in WeatherDisplay:10.37 W/m2 BKN
14:30 79.7 °F 69.8 °F 30.12 in SW 7.0 mph 7.0 mph 72% 0.00 in WeatherDisplay:10.37 W/m2 BKN
14:35 79.5 °F 69.6 °F 30.11 in SW 7.0 mph 7.0 mph 72% 0.00 in WeatherDisplay:10.37 W/m2 BKN
14:40 79.4 °F 70.3 °F 30.11 in SW 7.0 mph 7.0 mph 74% 0.00 in WeatherDisplay:10.37 W/m2 BKN
14:45 79.3 °F 69.5 °F 30.10 in SW 7.0 mph 7.0 mph 72% 0.00 in WeatherDisplay:10.37 W/m2 BKN
14:50 79.2 °F 69.8 °F 30.10 in SW 7.0 mph 7.0 mph 73% 0.00 in WeatherDisplay:10.37 W/m2 BKN
15:00 79.1 °F 70.5 °F 30.10 in SW 7.0 mph 7.0 mph 75% 0.00 in WeatherDisplay:10.37 W/m2 BKN
15:05 79.0 °F 70.8 °F 30.10 in SW 7.0 mph 7.0 mph 76% 0.00 in WeatherDisplay:10.37 W/m2 BKN
15:10 78.9 °F 69.9 °F 30.10 in SW 7.0 mph 7.0 mph 74% 0.00 in WeatherDisplay:10.37 W/m2 BKN
15:15 78.7 °F 70.1 °F 30.09 in SSW 5.0 mph 7.0 mph 75% 0.00 in WeatherDisplay:10.37 W/m2 -RA
15:20 78.5 °F 70.3 °F 30.09 in South 5.0 mph 5.0 mph 76% 0.00 in WeatherDisplay:10.37 W/m2 -RA
15:25 77.9 °F 70.9 °F 30.09 in West 10.0 mph 10.0 mph 79% 0.00 in WeatherDisplay:10.37 W/m2 -RA
15:30 77.4 °F 70.8 °F 30.09 in West 10.0 mph 10.0 mph 80% 0.00 in WeatherDisplay:10.37 W/m2 -RA
15:35 77.1 °F 71.2 °F 30.09 in West 10.0 mph 10.0 mph 82% 0.00 in WeatherDisplay:10.37 W/m2 -RA
15:40 76.9 °F 71.0 °F 30.09 in West 10.0 mph 10.0 mph 82% 0.00 in WeatherDisplay:10.37 W/m2 -RA
15:45 76.8 °F 70.5 °F 30.08 in WSW 5.0 mph 10.0 mph 81% 0.00 in WeatherDisplay:10.37 W/m2 BKN
15:50 76.9 °F 71.3 °F 30.08 in SSW 5.0 mph 5.0 mph 83% 0.00 in WeatherDisplay:10.37 W/m2 BKN
15:55 77.1 °F 70.8 °F 30.08 in SSW 5.0 mph 5.0 mph 81% 0.00 in WeatherDisplay:10.37 W/m2 BKN
16:00 77.3 °F 71.0 °F 30.08 in SSW 5.0 mph 5.0 mph 81% 0.00 in WeatherDisplay:10.37 W/m2 BKN
16:05 77.4 °F 71.1 °F 30.07 in SSW 5.0 mph 5.0 mph 81% 0.00 in WeatherDisplay:10.37 W/m2 BKN
16:10 77.6 °F 69.8 °F 30.07 in SSW 5.0 mph 5.0 mph 77% 0.00 in WeatherDisplay:10.37 W/m2 BKN
16:15 77.8 °F 70.4 °F 30.07 in ESE 2.0 mph 5.0 mph 78% 0.00 in WeatherDisplay:10.37 W/m2 BKN
16:20 77.9 °F 70.1 °F 30.07 in NNE 2.0 mph 2.0 mph 77% 0.00 in WeatherDisplay:10.37 W/m2 BKN
16:25 78.0 °F 69.8 °F 30.07 in NNE 2.0 mph 2.0 mph 76% 0.00 in WeatherDisplay:10.37 W/m2 BKN
16:30 78.1 °F 69.9 °F 30.07 in NNE 2.0 mph 2.0 mph 76% 0.00 in WeatherDisplay:10.37 W/m2 BKN
16:40 78.0 °F 69.9 °F 30.06 in NNE 2.0 mph 2.0 mph 76% 0.00 in WeatherDisplay:10.37 W/m2 BKN
16:45 77.9 °F 70.1 °F 30.07 in NNE 2.0 mph 2.0 mph 77% 0.00 in WeatherDisplay:10.37 W/m2 BKN
16:50 77.9 °F 70.5 °F 30.06 in NNE 2.0 mph 2.0 mph 78% 0.00 in WeatherDisplay:10.37 W/m2 BKN
16:55 77.8 °F 70.4 °F 30.06 in NNE 2.0 mph 2.0 mph 78% 0.00 in WeatherDisplay:10.37 W/m2 BKN
17:00 77.9 °F 70.5 °F 30.06 in NNE 2.0 mph 2.0 mph 78% 0.00 in WeatherDisplay:10.37 W/m2 BKN
17:05 77.9 °F 70.1 °F 30.06 in NNE 2.0 mph 2.0 mph 77% 0.00 in WeatherDisplay:10.37 W/m2 BKN
17:10 77.8 °F 70.8 °F 30.06 in NNE 2.0 mph 2.0 mph 79% 0.00 in WeatherDisplay:10.37 W/m2 BKN
17:15 77.8 °F 71.1 °F 30.06 in WSW 5.0 mph 5.0 mph 80% 0.00 in WeatherDisplay:10.37 W/m2 BKN
17:20 77.7 °F 71.0 °F 30.06 in WSW 5.0 mph 5.0 mph 80% 0.00 in WeatherDisplay:10.37 W/m2 BKN
17:25 77.7 °F 71.0 °F 30.06 in WSW 5.0 mph 5.0 mph 80% 0.00 in WeatherDisplay:10.37 W/m2 BKN
17:30 77.4 °F 70.7 °F 30.06 in WSW 5.0 mph 5.0 mph 80% 0.00 in WeatherDisplay:10.37 W/m2 BKN
17:35 76.9 °F 69.6 °F 30.06 in WSW 5.0 mph 5.0 mph 78% 0.00 in WeatherDisplay:10.37 W/m2 BKN
17:40 76.2 °F 68.1 °F 30.06 in WSW 5.0 mph 5.0 mph 76% 0.00 in WeatherDisplay:10.37 W/m2 BKN
17:45 75.7 °F 68.0 °F 30.06 in WSW 5.0 mph 5.0 mph 77% 0.00 in WeatherDisplay:10.37 W/m2 BKN
17:50 75.3 °F 68.0 °F 30.06 in WSW 5.0 mph 5.0 mph 78% 0.00 in WeatherDisplay:10.37 W/m2 BKN
17:55 74.9 °F 67.5 °F 30.05 in WSW 5.0 mph 5.0 mph 78% 0.00 in WeatherDisplay:10.37 W/m2 BKN
18:00 74.6 °F 67.3 °F 30.05 in WSW 5.0 mph 5.0 mph 78% 0.00 in WeatherDisplay:10.37 W/m2 BKN
18:10 74.4 °F 67.5 °F 30.04 in WSW 5.0 mph 5.0 mph 79% 0.00 in WeatherDisplay:10.37 W/m2 BKN
18:15 74.2 °F 67.6 °F 30.04 in NNW 9.0 mph 9.0 mph 80% 0.00 in WeatherDisplay:10.37 W/m2 BKN
18:20 73.9 °F 67.7 °F 30.04 in North 9.0 mph 9.0 mph 81% 0.00 in WeatherDisplay:10.37 W/m2 BKN
18:25 73.7 °F 67.5 °F 30.04 in North 9.0 mph 9.0 mph 81% 0.00 in WeatherDisplay:10.37 W/m2 BKN
18:30 73.3 °F 67.4 °F 30.04 in North 9.0 mph 9.0 mph 82% 0.00 in WeatherDisplay:10.37 W/m2 BKN
18:35 72.9 °F 67.1 °F 30.04 in North 9.0 mph 9.0 mph 82% 0.00 in WeatherDisplay:10.37 W/m2 BKN
18:40 72.7 °F 67.2 °F 30.05 in North 9.0 mph 9.0 mph 83% 0.00 in WeatherDisplay:10.37 W/m2 BKN
18:45 72.5 °F 67.0 °F 30.04 in North 9.0 mph 9.0 mph 83% 0.00 in WeatherDisplay:10.37 W/m2 BKN
18:50 72.2 °F 67.1 °F 30.04 in North 9.0 mph 9.0 mph 84% 0.00 in WeatherDisplay:10.37 W/m2 BKN
18:55 71.9 °F 66.8 °F 30.04 in North 9.0 mph 9.0 mph 84% 0.00 in WeatherDisplay:10.37 W/m2 BKN
19:00 71.6 °F 66.9 °F 30.04 in North 9.0 mph 9.0 mph 85% 0.00 in WeatherDisplay:10.37 W/m2 BKN
19:05 71.6 °F 66.8 °F 30.04 in North 9.0 mph 9.0 mph 85% 0.00 in WeatherDisplay:10.37 W/m2 BKN
19:10 71.5 °F 66.8 °F 30.04 in North 9.0 mph 9.0 mph 85% 0.00 in WeatherDisplay:10.37 W/m2 BKN
19:15 71.3 °F 66.5 °F 30.04 in North 9.0 mph 9.0 mph 85% 0.00 in WeatherDisplay:10.37 W/m2 SCT
19:20 71.1 °F 66.7 °F 30.04 in North 9.0 mph 9.0 mph 86% 0.00 in WeatherDisplay:10.37 W/m2 SCT
19:25 70.9 °F 66.5 °F 30.04 in North 9.0 mph 9.0 mph 86% 0.00 in WeatherDisplay:10.37 W/m2 SCT
19:30 70.7 °F 66.3 °F 30.04 in North 9.0 mph 9.0 mph 86% 0.00 in WeatherDisplay:10.37 W/m2 SCT
19:35 70.5 °F 66.1 °F 30.04 in North 9.0 mph 9.0 mph 86% 0.00 in WeatherDisplay:10.37 W/m2 SCT
19:40 70.3 °F 66.3 °F 30.04 in North 9.0 mph 9.0 mph 87% 0.00 in WeatherDisplay:10.37 W/m2 SCT
19:45 70.2 °F 66.1 °F 30.04 in North 9.0 mph 9.0 mph 87% 0.00 in WeatherDisplay:10.37 W/m2 SCT
19:50 70.0 °F 66.3 °F 30.04 in North 9.0 mph 9.0 mph 88% 0.00 in WeatherDisplay:10.37 W/m2 SCT
19:55 69.9 °F 66.2 °F 30.04 in North 9.0 mph 9.0 mph 88% 0.00 in WeatherDisplay:10.37 W/m2 SCT
20:00 69.7 °F 66.0 °F 30.04 in North 9.0 mph 9.0 mph 88% 0.00 in WeatherDisplay:10.37 W/m2 SCT
20:05 69.6 °F 65.9 °F 30.04 in North 9.0 mph 9.0 mph 88% 0.00 in WeatherDisplay:10.37 W/m2 SCT
20:10 69.4 °F 66.0 °F 30.04 in North 9.0 mph 9.0 mph 89% 0.00 in WeatherDisplay:10.37 W/m2 SCT
20:15 69.3 °F 65.9 °F 30.04 in ENE 5.0 mph 9.0 mph 89% 0.00 in WeatherDisplay:10.37 W/m2 FEW
20:20 69.2 °F 65.8 °F 30.04 in SSE 5.0 mph 5.0 mph 89% 0.00 in WeatherDisplay:10.37 W/m2 FEW
20:25 69.0 °F 65.7 °F 30.05 in SSE 5.0 mph 5.0 mph 89% 0.00 in WeatherDisplay:10.37 W/m2 FEW
20:30 69.0 °F 65.9 °F 30.05 in SSE 5.0 mph 5.0 mph 90% 0.00 in WeatherDisplay:10.37 W/m2 FEW
20:40 68.9 °F 66.2 °F 30.06 in SSE 5.0 mph 5.0 mph 91% 0.00 in WeatherDisplay:10.37 W/m2 FEW
20:45 68.9 °F 66.1 °F 30.06 in SSE 5.0 mph 5.0 mph 91% 0.00 in WeatherDisplay:10.37 W/m2 FEW
20:50 68.8 °F 66.1 °F 30.06 in SSE 5.0 mph 5.0 mph 91% 0.00 in WeatherDisplay:10.37 W/m2 FEW
20:55 68.8 °F 66.1 °F 30.07 in SSE 5.0 mph 5.0 mph 91% 0.00 in WeatherDisplay:10.37 W/m2 FEW
21:00 68.7 °F 66.0 °F 30.07 in SSE 5.0 mph 5.0 mph 91% 0.00 in WeatherDisplay:10.37 W/m2 FEW
21:05 68.8 °F 66.0 °F 30.07 in SSE 5.0 mph 5.0 mph 91% 0.00 in WeatherDisplay:10.37 W/m2 FEW
21:10 68.7 °F 66.0 °F 30.07 in SSE 5.0 mph 5.0 mph 91% 0.00 in WeatherDisplay:10.37 W/m2 FEW
21:15 68.5 °F 65.8 °F 30.07 in ENE 2.0 mph 5.0 mph 91% 0.00 in WeatherDisplay:10.37 W/m2 FEW
21:20 68.4 °F 65.7 °F 30.07 in NNW 2.0 mph 2.0 mph 91% 0.00 in WeatherDisplay:10.37 W/m2 FEW
21:25 68.4 °F 65.7 °F 30.08 in NNW 2.0 mph 2.0 mph 91% 0.00 in WeatherDisplay:10.37 W/m2 FEW
21:30 68.3 °F 65.6 °F 30.08 in NNW 2.0 mph 2.0 mph 91% 0.00 in WeatherDisplay:10.37 W/m2 FEW
21:40 68.2 °F 65.5 °F 30.08 in NNW 2.0 mph 2.0 mph 91% 0.00 in WeatherDisplay:10.37 W/m2 FEW
21:45 68.1 °F 65.4 °F 30.08 in NNW 2.0 mph 2.0 mph 91% 0.00 in WeatherDisplay:10.37 W/m2 FEW
21:50 68.1 °F 65.4 °F 30.07 in NNW 2.0 mph 2.0 mph 91% 0.00 in WeatherDisplay:10.37 W/m2 FEW
21:55 68.0 °F 65.3 °F 30.07 in NNW 2.0 mph 2.0 mph 91% 0.00 in WeatherDisplay:10.37 W/m2 FEW
22:00 67.9 °F 65.2 °F 30.07 in NNW 2.0 mph 2.0 mph 91% 0.00 in WeatherDisplay:10.37 W/m2 FEW
22:05 67.8 °F 65.1 °F 30.07 in NNW 2.0 mph 2.0 mph 91% 0.00 in WeatherDisplay:10.37 W/m2 FEW
22:10 67.8 °F 65.4 °F 30.08 in NNW 2.0 mph 2.0 mph 92% 0.00 in WeatherDisplay:10.37 W/m2 FEW
22:15 67.7 °F 65.3 °F 30.08 in SSE 2.0 mph 2.0 mph 92% 0.00 in WeatherDisplay:10.37 W/m2 FEW
22:20 67.6 °F 65.2 °F 30.08 in SSE 2.0 mph 2.0 mph 92% 0.00 in WeatherDisplay:10.37 W/m2 FEW
22:25 67.6 °F 65.2 °F 30.08 in SSE 2.0 mph 2.0 mph 92% 0.00 in WeatherDisplay:10.37 W/m2 FEW
22:30 67.5 °F 65.1 °F 30.08 in SSE 2.0 mph 2.0 mph 92% 0.00 in WeatherDisplay:10.37 W/m2 FEW
22:40 67.4 °F 65.0 °F 30.08 in SSE 2.0 mph 2.0 mph 92% 0.00 in WeatherDisplay:10.37 W/m2 FEW
22:45 67.3 °F 64.9 °F 30.08 in SSE 2.0 mph 2.0 mph 92% 0.00 in WeatherDisplay:10.37 W/m2 FEW
22:50 67.3 °F 64.9 °F 30.08 in SSE 2.0 mph 2.0 mph 92% 0.00 in WeatherDisplay:10.37 W/m2 FEW
22:55 67.3 °F 64.9 °F 30.08 in SSE 2.0 mph 2.0 mph 92% 0.00 in WeatherDisplay:10.37 W/m2 FEW
23:00 67.3 °F 64.9 °F 30.08 in SSE 2.0 mph 2.0 mph 92% 0.00 in WeatherDisplay:10.37 W/m2 FEW
23:05 67.4 °F 65.0 °F 30.07 in SSE 2.0 mph 2.0 mph 92% 0.00 in WeatherDisplay:10.37 W/m2 FEW
23:10 67.5 °F 65.1 °F 30.07 in SSE 2.0 mph 2.0 mph 92% 0.00 in WeatherDisplay:10.37 W/m2 FEW
23:20 67.6 °F 65.5 °F 30.07 in SSE 2.0 mph 2.0 mph 93% 0.00 in WeatherDisplay:10.37 W/m2 BKN
23:25 67.7 °F 65.6 °F 30.07 in SSE 2.0 mph 2.0 mph 93% 0.00 in WeatherDisplay:10.37 W/m2 BKN
23:30 67.8 °F 65.7 °F 30.07 in SSE 2.0 mph 2.0 mph 93% 0.00 in WeatherDisplay:10.37 W/m2 BKN
23:40 67.9 °F 65.8 °F 30.06 in SSE 2.0 mph 2.0 mph 93% 0.00 in WeatherDisplay:10.37 W/m2 BKN
23:45 67.9 °F 65.8 °F 30.06 in SSE 2.0 mph 2.0 mph 93% 0.00 in WeatherDisplay:10.37 W/m2 BKN
23:50 67.9 °F 65.8 °F 30.06 in SSE 2.0 mph 2.0 mph 93% 0.00 in WeatherDisplay:10.37 W/m2 BKN
23:55 68.0 °F 65.6 °F 30.06 in SSE 2.0 mph 2.0 mph 92% 0.00 in WeatherDisplay:10.37 W/m2 BKN
Piedmont Bend
Compliments of Weather Underground - 4 mb